<?xml version="1.0" encoding="UTF-8" standalone="no" ?>
<gpx xmlns="http://www.topografix.com/GPX/1/1" xmlns:xsi="http://www.w3.org/2001/XMLSchema-instance" xsi:schemaLocation="http://www.topografix.com/GPX/1/1 http://www.topografix.com/GPX/1/1/gpx.xsd" version="1.1" creator="VisuGPX - https://www.visugpx.com">
  <metadata>
    <name>2024-06-15 LAUTREC BOUCLE DES 2 CHATEAUX</name>
    <desc><![CDATA[LAUTREC AQUAVAL / CHATEAU DE MAILVIGNOL / LA BERTRANDIE / CHATEAU DE BRAMETOURTE
#81 #RANDOX #LAUTREC]]></desc>
  </metadata>
  <trk>
    <name><![CDATA[RDX240615 LAUTREC-18851448]]></name>
    <extensions>
      <line xmlns="http://www.topografix.com/GPX/gpx_style/0/2">
        <color>0000FF</color>
        <width>4</width>
      </line>
    </extensions>
    <trkseg>
      <trkpt lat="43.70329" lon="2.13051">
        <ele>231</ele>
        <time>2024-06-15T07:16:45.000Z</time>
      </trkpt>
      <trkpt lat="43.7033" lon="2.1305">
        <ele>231</ele>
        <time>2024-06-15T07:16:45.147Z</time>
      </trkpt>
      <trkpt lat="43.70346" lon="2.13161">
        <ele>233</ele>
        <time>2024-06-15T07:16:57.711Z</time>
      </trkpt>
      <trkpt lat="43.70352" lon="2.1321">
        <ele>236</ele>
        <time>2024-06-15T07:17:09.424Z</time>
      </trkpt>
      <trkpt lat="43.7035" lon="2.13233">
        <ele>237</ele>
        <time>2024-06-15T07:17:13.382Z</time>
      </trkpt>
      <trkpt lat="43.70342" lon="2.13375">
        <ele>247</ele>
        <time>2024-06-15T07:17:53.468Z</time>
      </trkpt>
      <trkpt lat="43.70344" lon="2.13413">
        <ele>250</ele>
        <time>2024-06-15T07:18:05.718Z</time>
      </trkpt>
      <trkpt lat="43.70352" lon="2.1348">
        <ele>255</ele>
        <time>2024-06-15T07:18:25.943Z</time>
      </trkpt>
      <trkpt lat="43.70351" lon="2.1351">
        <ele>257</ele>
        <time>2024-06-15T07:18:33.878Z</time>
      </trkpt>
      <trkpt lat="43.70354" lon="2.13516">
        <ele>258</ele>
        <time>2024-06-15T07:18:36.576Z</time>
      </trkpt>
      <trkpt lat="43.70384" lon="2.13572">
        <ele>265</ele>
        <time>2024-06-15T07:19:02.360Z</time>
      </trkpt>
      <trkpt lat="43.704" lon="2.13573">
        <ele>267</ele>
        <time>2024-06-15T07:19:10.381Z</time>
      </trkpt>
      <trkpt lat="43.70413" lon="2.13574">
        <ele>268</ele>
        <time>2024-06-15T07:19:14.256Z</time>
      </trkpt>
      <trkpt lat="43.70451" lon="2.13568">
        <ele>269</ele>
        <time>2024-06-15T07:19:20.241Z</time>
      </trkpt>
      <trkpt lat="43.7047" lon="2.13571">
        <ele>271</ele>
        <time>2024-06-15T07:19:28.367Z</time>
      </trkpt>
      <trkpt lat="43.70488" lon="2.13577">
        <ele>273</ele>
        <time>2024-06-15T07:19:36.527Z</time>
      </trkpt>
      <trkpt lat="43.70501" lon="2.13586">
        <ele>275</ele>
        <time>2024-06-15T07:19:43.966Z</time>
      </trkpt>
      <trkpt lat="43.70522" lon="2.13604">
        <ele>278</ele>
        <time>2024-06-15T07:19:56.121Z</time>
      </trkpt>
      <trkpt lat="43.7052" lon="2.13609">
        <ele>279</ele>
        <time>2024-06-15T07:19:58.234Z</time>
      </trkpt>
      <trkpt lat="43.70524" lon="2.13613">
        <ele>279</ele>
        <time>2024-06-15T07:19:58.824Z</time>
      </trkpt>
      <trkpt lat="43.70564" lon="2.13646">
        <ele>282</ele>
        <time>2024-06-15T07:20:10.542Z</time>
      </trkpt>
      <trkpt lat="43.70607" lon="2.13686">
        <ele>285</ele>
        <time>2024-06-15T07:20:22.496Z</time>
      </trkpt>
      <trkpt lat="43.70624" lon="2.13702">
        <ele>286</ele>
        <time>2024-06-15T07:20:26.705Z</time>
      </trkpt>
      <trkpt lat="43.70735" lon="2.13795">
        <ele>297</ele>
        <time>2024-06-15T07:21:09.740Z</time>
      </trkpt>
      <trkpt lat="43.70751" lon="2.13817">
        <ele>298</ele>
        <time>2024-06-15T07:21:14.116Z</time>
      </trkpt>
      <trkpt lat="43.70753" lon="2.1382">
        <ele>298</ele>
        <time>2024-06-15T07:21:14.468Z</time>
      </trkpt>
      <trkpt lat="43.70761" lon="2.13817">
        <ele>298</ele>
        <time>2024-06-15T07:21:15.458Z</time>
      </trkpt>
      <trkpt lat="43.70761" lon="2.13812">
        <ele>298</ele>
        <time>2024-06-15T07:21:15.889Z</time>
      </trkpt>
      <trkpt lat="43.70775" lon="2.13802">
        <ele>298</ele>
        <time>2024-06-15T07:21:17.770Z</time>
      </trkpt>
      <trkpt lat="43.70775" lon="2.13795">
        <ele>298</ele>
        <time>2024-06-15T07:21:18.375Z</time>
      </trkpt>
      <trkpt lat="43.70786" lon="2.13787">
        <ele>299</ele>
        <time>2024-06-15T07:21:22.263Z</time>
      </trkpt>
      <trkpt lat="43.70792" lon="2.13783">
        <ele>299</ele>
        <time>2024-06-15T07:21:23.058Z</time>
      </trkpt>
      <trkpt lat="43.70826" lon="2.13776">
        <ele>302</ele>
        <time>2024-06-15T07:21:34.847Z</time>
      </trkpt>
      <trkpt lat="43.70826" lon="2.13776">
        <ele>302</ele>
        <time>2024-06-15T07:21:34.847Z</time>
      </trkpt>
      <trkpt lat="43.70835" lon="2.13763">
        <ele>304</ele>
        <time>2024-06-15T07:21:41.505Z</time>
      </trkpt>
      <trkpt lat="43.70868" lon="2.1374">
        <ele>311</ele>
        <time>2024-06-15T07:22:00.413Z</time>
      </trkpt>
      <trkpt lat="43.70937" lon="2.13728">
        <ele>322</ele>
        <time>2024-06-15T07:22:35.998Z</time>
      </trkpt>
      <trkpt lat="43.70974" lon="2.13721">
        <ele>328</ele>
        <time>2024-06-15T07:22:55.108Z</time>
      </trkpt>
      <trkpt lat="43.71006" lon="2.13704">
        <ele>333</ele>
        <time>2024-06-15T07:23:12.648Z</time>
      </trkpt>
      <trkpt lat="43.71019" lon="2.137">
        <ele>333</ele>
        <time>2024-06-15T07:23:14.238Z</time>
      </trkpt>
      <trkpt lat="43.71027" lon="2.13686">
        <ele>334</ele>
        <time>2024-06-15T07:23:18.116Z</time>
      </trkpt>
      <trkpt lat="43.71033" lon="2.13679">
        <ele>334</ele>
        <time>2024-06-15T07:23:19.053Z</time>
      </trkpt>
      <trkpt lat="43.7107" lon="2.13653">
        <ele>334</ele>
        <time>2024-06-15T07:23:24.008Z</time>
      </trkpt>
      <trkpt lat="43.71089" lon="2.13636">
        <ele>333</ele>
        <time>2024-06-15T07:23:25.885Z</time>
      </trkpt>
      <trkpt lat="43.71092" lon="2.13622">
        <ele>333</ele>
        <time>2024-06-15T07:23:27.145Z</time>
      </trkpt>
      <trkpt lat="43.71091" lon="2.13615">
        <ele>332</ele>
        <time>2024-06-15T07:23:27.515Z</time>
      </trkpt>
      <trkpt lat="43.71097" lon="2.1361">
        <ele>333</ele>
        <time>2024-06-15T07:23:31.099Z</time>
      </trkpt>
      <trkpt lat="43.71101" lon="2.13607">
        <ele>333</ele>
        <time>2024-06-15T07:23:31.642Z</time>
      </trkpt>
      <trkpt lat="43.71111" lon="2.13591">
        <ele>334</ele>
        <time>2024-06-15T07:23:35.541Z</time>
      </trkpt>
      <trkpt lat="43.71127" lon="2.13549">
        <ele>333</ele>
        <time>2024-06-15T07:23:38.725Z</time>
      </trkpt>
      <trkpt lat="43.7114" lon="2.13508">
        <ele>332</ele>
        <time>2024-06-15T07:23:41.688Z</time>
      </trkpt>
      <trkpt lat="43.71146" lon="2.13509">
        <ele>333</ele>
        <time>2024-06-15T07:23:44.780Z</time>
      </trkpt>
      <trkpt lat="43.71158" lon="2.13497">
        <ele>335</ele>
        <time>2024-06-15T07:23:52.357Z</time>
      </trkpt>
      <trkpt lat="43.71177" lon="2.13474">
        <ele>336</ele>
        <time>2024-06-15T07:23:56.979Z</time>
      </trkpt>
      <trkpt lat="43.71209" lon="2.13452">
        <ele>336</ele>
        <time>2024-06-15T07:24:01.245Z</time>
      </trkpt>
      <trkpt lat="43.71244" lon="2.13433">
        <ele>335</ele>
        <time>2024-06-15T07:24:04.805Z</time>
      </trkpt>
      <trkpt lat="43.71269" lon="2.13427">
        <ele>334</ele>
        <time>2024-06-15T07:24:06.984Z</time>
      </trkpt>
      <trkpt lat="43.71279" lon="2.13416">
        <ele>333</ele>
        <time>2024-06-15T07:24:07.899Z</time>
      </trkpt>
      <trkpt lat="43.71379" lon="2.13288">
        <ele>324</ele>
        <time>2024-06-15T07:24:17.697Z</time>
      </trkpt>
      <trkpt lat="43.71397" lon="2.13268">
        <ele>323</ele>
        <time>2024-06-15T07:24:19.625Z</time>
      </trkpt>
      <trkpt lat="43.71413" lon="2.13255">
        <ele>321</ele>
        <time>2024-06-15T07:24:20.954Z</time>
      </trkpt>
      <trkpt lat="43.71451" lon="2.13241">
        <ele>319</ele>
        <time>2024-06-15T07:24:24.070Z</time>
      </trkpt>
      <trkpt lat="43.71515" lon="2.13205">
        <ele>315</ele>
        <time>2024-06-15T07:24:29.298Z</time>
      </trkpt>
      <trkpt lat="43.71532" lon="2.13189">
        <ele>315</ele>
        <time>2024-06-15T07:24:31.753Z</time>
      </trkpt>
      <trkpt lat="43.71579" lon="2.13138">
        <ele>312</ele>
        <time>2024-06-15T07:24:36.506Z</time>
      </trkpt>
      <trkpt lat="43.71624" lon="2.13118">
        <ele>311</ele>
        <time>2024-06-15T07:24:41.184Z</time>
      </trkpt>
      <trkpt lat="43.71679" lon="2.13064">
        <ele>308</ele>
        <time>2024-06-15T07:24:46.768Z</time>
      </trkpt>
      <trkpt lat="43.71674" lon="2.13052">
        <ele>308</ele>
        <time>2024-06-15T07:24:47.963Z</time>
      </trkpt>
      <trkpt lat="43.7167" lon="2.13041">
        <ele>308</ele>
        <time>2024-06-15T07:24:49.026Z</time>
      </trkpt>
      <trkpt lat="43.71633" lon="2.12989">
        <ele>308</ele>
        <time>2024-06-15T07:24:55.323Z</time>
      </trkpt>
      <trkpt lat="43.71608" lon="2.12965">
        <ele>309</ele>
        <time>2024-06-15T07:25:00.465Z</time>
      </trkpt>
      <trkpt lat="43.71609" lon="2.12955">
        <ele>309</ele>
        <time>2024-06-15T07:25:01.336Z</time>
      </trkpt>
      <trkpt lat="43.71564" lon="2.12934">
        <ele>312</ele>
        <time>2024-06-15T07:25:13.087Z</time>
      </trkpt>
      <trkpt lat="43.71553" lon="2.12936">
        <ele>313</ele>
        <time>2024-06-15T07:25:17.038Z</time>
      </trkpt>
      <trkpt lat="43.71541" lon="2.12939">
        <ele>314</ele>
        <time>2024-06-15T07:25:20.934Z</time>
      </trkpt>
      <trkpt lat="43.71527" lon="2.12929">
        <ele>315</ele>
        <time>2024-06-15T07:25:24.848Z</time>
      </trkpt>
      <trkpt lat="43.71502" lon="2.12896">
        <ele>316</ele>
        <time>2024-06-15T07:25:30.429Z</time>
      </trkpt>
      <trkpt lat="43.71457" lon="2.1281">
        <ele>319</ele>
        <time>2024-06-15T07:25:44.390Z</time>
      </trkpt>
      <trkpt lat="43.7145" lon="2.1277">
        <ele>320</ele>
        <time>2024-06-15T07:25:49.461Z</time>
      </trkpt>
      <trkpt lat="43.71438" lon="2.12717">
        <ele>323</ele>
        <time>2024-06-15T07:26:01.077Z</time>
      </trkpt>
      <trkpt lat="43.71426" lon="2.12679">
        <ele>326</ele>
        <time>2024-06-15T07:26:13.174Z</time>
      </trkpt>
      <trkpt lat="43.71427" lon="2.12661">
        <ele>327</ele>
        <time>2024-06-15T07:26:17.049Z</time>
      </trkpt>
      <trkpt lat="43.71423" lon="2.12646">
        <ele>329</ele>
        <time>2024-06-15T07:26:22.963Z</time>
      </trkpt>
      <trkpt lat="43.71421" lon="2.12638">
        <ele>329</ele>
        <time>2024-06-15T07:26:23.693Z</time>
      </trkpt>
      <trkpt lat="43.71407" lon="2.12621">
        <ele>332</ele>
        <time>2024-06-15T07:26:33.225Z</time>
      </trkpt>
      <trkpt lat="43.71381" lon="2.12601">
        <ele>335</ele>
        <time>2024-06-15T07:26:45.338Z</time>
      </trkpt>
      <trkpt lat="43.71365" lon="2.12579">
        <ele>336</ele>
        <time>2024-06-15T07:26:49.713Z</time>
      </trkpt>
      <trkpt lat="43.71346" lon="2.12577">
        <ele>336</ele>
        <time>2024-06-15T07:26:51.989Z</time>
      </trkpt>
      <trkpt lat="43.71334" lon="2.12571">
        <ele>336</ele>
        <time>2024-06-15T07:26:53.512Z</time>
      </trkpt>
      <trkpt lat="43.71324" lon="2.12563">
        <ele>336</ele>
        <time>2024-06-15T07:26:54.891Z</time>
      </trkpt>
      <trkpt lat="43.71299" lon="2.12534">
        <ele>334</ele>
        <time>2024-06-15T07:26:57.307Z</time>
      </trkpt>
      <trkpt lat="43.7129" lon="2.12528">
        <ele>333</ele>
        <time>2024-06-15T07:26:58.023Z</time>
      </trkpt>
      <trkpt lat="43.71281" lon="2.12527">
        <ele>333</ele>
        <time>2024-06-15T07:26:59.101Z</time>
      </trkpt>
      <trkpt lat="43.71269" lon="2.12532">
        <ele>334</ele>
        <time>2024-06-15T07:27:02.987Z</time>
      </trkpt>
      <trkpt lat="43.71265" lon="2.12535">
        <ele>334</ele>
        <time>2024-06-15T07:27:03.530Z</time>
      </trkpt>
      <trkpt lat="43.71238" lon="2.12571">
        <ele>339</ele>
        <time>2024-06-15T07:27:22.715Z</time>
      </trkpt>
      <trkpt lat="43.71218" lon="2.1259">
        <ele>341</ele>
        <time>2024-06-15T07:27:30.512Z</time>
      </trkpt>
      <trkpt lat="43.71189" lon="2.12602">
        <ele>342</ele>
        <time>2024-06-15T07:27:35.637Z</time>
      </trkpt>
      <trkpt lat="43.71179" lon="2.12603">
        <ele>342</ele>
        <time>2024-06-15T07:27:36.834Z</time>
      </trkpt>
      <trkpt lat="43.71159" lon="2.12598">
        <ele>341</ele>
        <time>2024-06-15T07:27:38.463Z</time>
      </trkpt>
      <trkpt lat="43.71134" lon="2.12577">
        <ele>340</ele>
        <time>2024-06-15T07:27:41.074Z</time>
      </trkpt>
      <trkpt lat="43.71126" lon="2.12575">
        <ele>340</ele>
        <time>2024-06-15T07:27:42.045Z</time>
      </trkpt>
      <trkpt lat="43.71107" lon="2.12576">
        <ele>341</ele>
        <time>2024-06-15T07:27:46.139Z</time>
      </trkpt>
      <trkpt lat="43.71108" lon="2.12558">
        <ele>339</ele>
        <time>2024-06-15T07:27:47.073Z</time>
      </trkpt>
      <trkpt lat="43.71115" lon="2.12509">
        <ele>335</ele>
        <time>2024-06-15T07:27:49.660Z</time>
      </trkpt>
      <trkpt lat="43.7115" lon="2.12369">
        <ele>324</ele>
        <time>2024-06-15T07:27:57.331Z</time>
      </trkpt>
      <trkpt lat="43.71236" lon="2.11986">
        <ele>319</ele>
        <time>2024-06-15T07:28:26.972Z</time>
      </trkpt>
      <trkpt lat="43.71251" lon="2.11938">
        <ele>321</ele>
        <time>2024-06-15T07:28:35.144Z</time>
      </trkpt>
      <trkpt lat="43.71326" lon="2.11748">
        <ele>321</ele>
        <time>2024-06-15T07:28:53.827Z</time>
      </trkpt>
      <trkpt lat="43.71334" lon="2.11725">
        <ele>320</ele>
        <time>2024-06-15T07:28:55.257Z</time>
      </trkpt>
      <trkpt lat="43.71335" lon="2.117">
        <ele>319</ele>
        <time>2024-06-15T07:28:56.650Z</time>
      </trkpt>
      <trkpt lat="43.71342" lon="2.11694">
        <ele>318</ele>
        <time>2024-06-15T07:28:57.240Z</time>
      </trkpt>
      <trkpt lat="43.71347" lon="2.11682">
        <ele>317</ele>
        <time>2024-06-15T07:28:57.957Z</time>
      </trkpt>
      <trkpt lat="43.71361" lon="2.11602">
        <ele>314</ele>
        <time>2024-06-15T07:29:02.686Z</time>
      </trkpt>
      <trkpt lat="43.71367" lon="2.11586">
        <ele>314</ele>
        <time>2024-06-15T07:29:04.242Z</time>
      </trkpt>
      <trkpt lat="43.71374" lon="2.11573">
        <ele>315</ele>
        <time>2024-06-15T07:29:08.158Z</time>
      </trkpt>
      <trkpt lat="43.71388" lon="2.11559">
        <ele>317</ele>
        <time>2024-06-15T07:29:16.330Z</time>
      </trkpt>
      <trkpt lat="43.71394" lon="2.11552">
        <ele>318</ele>
        <time>2024-06-15T07:29:20.300Z</time>
      </trkpt>
      <trkpt lat="43.7145" lon="2.1151">
        <ele>323</ele>
        <time>2024-06-15T07:29:39.703Z</time>
      </trkpt>
      <trkpt lat="43.71479" lon="2.11484">
        <ele>327</ele>
        <time>2024-06-15T07:29:56.048Z</time>
      </trkpt>
      <trkpt lat="43.71501" lon="2.1147">
        <ele>328</ele>
        <time>2024-06-15T07:30:00.573Z</time>
      </trkpt>
      <trkpt lat="43.71505" lon="2.11465">
        <ele>329</ele>
        <time>2024-06-15T07:30:03.332Z</time>
      </trkpt>
      <trkpt lat="43.71509" lon="2.11457">
        <ele>330</ele>
        <time>2024-06-15T07:30:06.929Z</time>
      </trkpt>
      <trkpt lat="43.71519" lon="2.11425">
        <ele>333</ele>
        <time>2024-06-15T07:30:19.142Z</time>
      </trkpt>
      <trkpt lat="43.71548" lon="2.11352">
        <ele>334</ele>
        <time>2024-06-15T07:30:27.634Z</time>
      </trkpt>
      <trkpt lat="43.71554" lon="2.11336">
        <ele>333</ele>
        <time>2024-06-15T07:30:28.568Z</time>
      </trkpt>
      <trkpt lat="43.7156" lon="2.11306">
        <ele>331</ele>
        <time>2024-06-15T07:30:30.179Z</time>
      </trkpt>
      <trkpt lat="43.71559" lon="2.11289">
        <ele>330</ele>
        <time>2024-06-15T07:30:31.062Z</time>
      </trkpt>
      <trkpt lat="43.71544" lon="2.11213">
        <ele>327</ele>
        <time>2024-06-15T07:30:35.520Z</time>
      </trkpt>
      <trkpt lat="43.71543" lon="2.112">
        <ele>326</ele>
        <time>2024-06-15T07:30:36.197Z</time>
      </trkpt>
      <trkpt lat="43.71546" lon="2.11182">
        <ele>325</ele>
        <time>2024-06-15T07:30:37.154Z</time>
      </trkpt>
      <trkpt lat="43.71601" lon="2.11053">
        <ele>322</ele>
        <time>2024-06-15T07:30:47.313Z</time>
      </trkpt>
      <trkpt lat="43.71654" lon="2.10906">
        <ele>313</ele>
        <time>2024-06-15T07:30:55.819Z</time>
      </trkpt>
      <trkpt lat="43.71667" lon="2.10861">
        <ele>312</ele>
        <time>2024-06-15T07:30:59.084Z</time>
      </trkpt>
      <trkpt lat="43.71661" lon="2.10856">
        <ele>311</ele>
        <time>2024-06-15T07:30:59.586Z</time>
      </trkpt>
      <trkpt lat="43.71652" lon="2.10861">
        <ele>310</ele>
        <time>2024-06-15T07:31:00.281Z</time>
      </trkpt>
      <trkpt lat="43.71644" lon="2.10868">
        <ele>310</ele>
        <time>2024-06-15T07:31:01.411Z</time>
      </trkpt>
      <trkpt lat="43.71637" lon="2.10876">
        <ele>310</ele>
        <time>2024-06-15T07:31:02.495Z</time>
      </trkpt>
      <trkpt lat="43.71615" lon="2.10912">
        <ele>311</ele>
        <time>2024-06-15T07:31:08.024Z</time>
      </trkpt>
      <trkpt lat="43.71607" lon="2.10919">
        <ele>311</ele>
        <time>2024-06-15T07:31:09.154Z</time>
      </trkpt>
      <trkpt lat="43.71591" lon="2.10927">
        <ele>311</ele>
        <time>2024-06-15T07:31:11.185Z</time>
      </trkpt>
      <trkpt lat="43.71574" lon="2.1093">
        <ele>310</ele>
        <time>2024-06-15T07:31:12.478Z</time>
      </trkpt>
      <trkpt lat="43.71509" lon="2.10929">
        <ele>302</ele>
        <time>2024-06-15T07:31:17.135Z</time>
      </trkpt>
      <trkpt lat="43.7148" lon="2.10935">
        <ele>300</ele>
        <time>2024-06-15T07:31:19.236Z</time>
      </trkpt>
      <trkpt lat="43.71463" lon="2.10943">
        <ele>300</ele>
        <time>2024-06-15T07:31:21.380Z</time>
      </trkpt>
      <trkpt lat="43.71405" lon="2.1096">
        <ele>299</ele>
        <time>2024-06-15T07:31:27.461Z</time>
      </trkpt>
      <trkpt lat="43.71391" lon="2.10958">
        <ele>299</ele>
        <time>2024-06-15T07:31:29.142Z</time>
      </trkpt>
      <trkpt lat="43.71379" lon="2.1095">
        <ele>299</ele>
        <time>2024-06-15T07:31:30.732Z</time>
      </trkpt>
      <trkpt lat="43.7137" lon="2.10935">
        <ele>298</ele>
        <time>2024-06-15T07:31:31.742Z</time>
      </trkpt>
      <trkpt lat="43.71364" lon="2.10913">
        <ele>296</ele>
        <time>2024-06-15T07:31:32.959Z</time>
      </trkpt>
      <trkpt lat="43.7136" lon="2.10869">
        <ele>294</ele>
        <time>2024-06-15T07:31:35.317Z</time>
      </trkpt>
      <trkpt lat="43.71353" lon="2.10818">
        <ele>293</ele>
        <time>2024-06-15T07:31:38.868Z</time>
      </trkpt>
      <trkpt lat="43.71357" lon="2.10693">
        <ele>291</ele>
        <time>2024-06-15T07:31:47.747Z</time>
      </trkpt>
      <trkpt lat="43.71355" lon="2.10679">
        <ele>291</ele>
        <time>2024-06-15T07:31:48.979Z</time>
      </trkpt>
      <trkpt lat="43.7135" lon="2.10666">
        <ele>291</ele>
        <time>2024-06-15T07:31:50.250Z</time>
      </trkpt>
      <trkpt lat="43.71349" lon="2.10623">
        <ele>291</ele>
        <time>2024-06-15T07:31:53.963Z</time>
      </trkpt>
      <trkpt lat="43.7133" lon="2.10573">
        <ele>291</ele>
        <time>2024-06-15T07:31:58.838Z</time>
      </trkpt>
      <trkpt lat="43.71311" lon="2.10568">
        <ele>287</ele>
        <time>2024-06-15T07:32:00.223Z</time>
      </trkpt>
      <trkpt lat="43.71289" lon="2.10586">
        <ele>286</ele>
        <time>2024-06-15T07:32:02.423Z</time>
      </trkpt>
      <trkpt lat="43.71283" lon="2.10595">
        <ele>285</ele>
        <time>2024-06-15T07:32:03.056Z</time>
      </trkpt>
      <trkpt lat="43.71281" lon="2.10607">
        <ele>285</ele>
        <time>2024-06-15T07:32:04.119Z</time>
      </trkpt>
      <trkpt lat="43.71286" lon="2.10631">
        <ele>286</ele>
        <time>2024-06-15T07:32:08.150Z</time>
      </trkpt>
      <trkpt lat="43.71282" lon="2.10639">
        <ele>286</ele>
        <time>2024-06-15T07:32:08.990Z</time>
      </trkpt>
      <trkpt lat="43.71271" lon="2.10635">
        <ele>285</ele>
        <time>2024-06-15T07:32:09.804Z</time>
      </trkpt>
      <trkpt lat="43.71259" lon="2.10638">
        <ele>283</ele>
        <time>2024-06-15T07:32:10.678Z</time>
      </trkpt>
      <trkpt lat="43.71227" lon="2.10671">
        <ele>283</ele>
        <time>2024-06-15T07:32:15.443Z</time>
      </trkpt>
      <trkpt lat="43.71191" lon="2.10644">
        <ele>281</ele>
        <time>2024-06-15T07:32:18.733Z</time>
      </trkpt>
      <trkpt lat="43.71172" lon="2.10612">
        <ele>276</ele>
        <time>2024-06-15T07:32:20.877Z</time>
      </trkpt>
      <trkpt lat="43.7119" lon="2.10457">
        <ele>266</ele>
        <time>2024-06-15T07:32:29.007Z</time>
      </trkpt>
      <trkpt lat="43.71193" lon="2.10421">
        <ele>264</ele>
        <time>2024-06-15T07:32:30.883Z</time>
      </trkpt>
      <trkpt lat="43.71201" lon="2.1036">
        <ele>264</ele>
        <time>2024-06-15T07:32:36.234Z</time>
      </trkpt>
      <trkpt lat="43.71203" lon="2.10342">
        <ele>264</ele>
        <time>2024-06-15T07:32:37.805Z</time>
      </trkpt>
      <trkpt lat="43.71201" lon="2.1033">
        <ele>264</ele>
        <time>2024-06-15T07:32:38.868Z</time>
      </trkpt>
      <trkpt lat="43.71194" lon="2.10318">
        <ele>263</ele>
        <time>2024-06-15T07:32:39.666Z</time>
      </trkpt>
      <trkpt lat="43.71185" lon="2.10328">
        <ele>264</ele>
        <time>2024-06-15T07:32:43.591Z</time>
      </trkpt>
      <trkpt lat="43.70967" lon="2.10558">
        <ele>275</ele>
        <time>2024-06-15T07:33:34.093Z</time>
      </trkpt>
      <trkpt lat="43.70841" lon="2.10687">
        <ele>288</ele>
        <time>2024-06-15T07:34:24.809Z</time>
      </trkpt>
      <trkpt lat="43.70835" lon="2.10671">
        <ele>289</ele>
        <time>2024-06-15T07:34:28.684Z</time>
      </trkpt>
      <trkpt lat="43.70812" lon="2.10604">
        <ele>291</ele>
        <time>2024-06-15T07:34:38.231Z</time>
      </trkpt>
      <trkpt lat="43.70809" lon="2.10583">
        <ele>291</ele>
        <time>2024-06-15T07:34:40.079Z</time>
      </trkpt>
      <trkpt lat="43.70809" lon="2.10562">
        <ele>291</ele>
        <time>2024-06-15T07:34:41.891Z</time>
      </trkpt>
      <trkpt lat="43.70836" lon="2.10363">
        <ele>289</ele>
        <time>2024-06-15T07:34:57.324Z</time>
      </trkpt>
      <trkpt lat="43.70827" lon="2.10355">
        <ele>290</ele>
        <time>2024-06-15T07:35:01.303Z</time>
      </trkpt>
      <trkpt lat="43.70798" lon="2.10311">
        <ele>294</ele>
        <time>2024-06-15T07:35:17.199Z</time>
      </trkpt>
      <trkpt lat="43.70784" lon="2.10286">
        <ele>295</ele>
        <time>2024-06-15T07:35:21.600Z</time>
      </trkpt>
      <trkpt lat="43.70747" lon="2.10212">
        <ele>295</ele>
        <time>2024-06-15T07:35:29.366Z</time>
      </trkpt>
      <trkpt lat="43.70739" lon="2.10203">
        <ele>296</ele>
        <time>2024-06-15T07:35:33.374Z</time>
      </trkpt>
      <trkpt lat="43.70729" lon="2.10196">
        <ele>296</ele>
        <time>2024-06-15T07:35:34.712Z</time>
      </trkpt>
      <trkpt lat="43.70706" lon="2.10189">
        <ele>299</ele>
        <time>2024-06-15T07:35:46.621Z</time>
      </trkpt>
      <trkpt lat="43.7069" lon="2.10187">
        <ele>300</ele>
        <time>2024-06-15T07:35:50.548Z</time>
      </trkpt>
      <trkpt lat="43.70671" lon="2.10189">
        <ele>303</ele>
        <time>2024-06-15T07:36:00.298Z</time>
      </trkpt>
      <trkpt lat="43.70657" lon="2.10191">
        <ele>304</ele>
        <time>2024-06-15T07:36:04.172Z</time>
      </trkpt>
      <trkpt lat="43.70644" lon="2.10196">
        <ele>305</ele>
        <time>2024-06-15T07:36:08.044Z</time>
      </trkpt>
      <trkpt lat="43.70625" lon="2.1021">
        <ele>307</ele>
        <time>2024-06-15T07:36:15.991Z</time>
      </trkpt>
      <trkpt lat="43.70608" lon="2.10194">
        <ele>306</ele>
        <time>2024-06-15T07:36:17.645Z</time>
      </trkpt>
      <trkpt lat="43.7059" lon="2.10203">
        <ele>307</ele>
        <time>2024-06-15T07:36:21.748Z</time>
      </trkpt>
      <trkpt lat="43.70524" lon="2.10155">
        <ele>296</ele>
        <time>2024-06-15T07:36:27.090Z</time>
      </trkpt>
      <trkpt lat="43.70554" lon="2.10038">
        <ele>290</ele>
        <time>2024-06-15T07:36:33.519Z</time>
      </trkpt>
      <trkpt lat="43.70565" lon="2.10025">
        <ele>290</ele>
        <time>2024-06-15T07:36:35.246Z</time>
      </trkpt>
      <trkpt lat="43.70542" lon="2.10023">
        <ele>288</ele>
        <time>2024-06-15T07:36:36.897Z</time>
      </trkpt>
      <trkpt lat="43.70533" lon="2.10029">
        <ele>288</ele>
        <time>2024-06-15T07:36:38.090Z</time>
      </trkpt>
      <trkpt lat="43.70517" lon="2.10056">
        <ele>287</ele>
        <time>2024-06-15T07:36:40.254Z</time>
      </trkpt>
      <trkpt lat="43.70471" lon="2.10141">
        <ele>288</ele>
        <time>2024-06-15T07:36:50.683Z</time>
      </trkpt>
      <trkpt lat="43.70456" lon="2.10167">
        <ele>289</ele>
        <time>2024-06-15T07:36:55.192Z</time>
      </trkpt>
      <trkpt lat="43.70444" lon="2.10183">
        <ele>288</ele>
        <time>2024-06-15T07:36:56.437Z</time>
      </trkpt>
      <trkpt lat="43.70431" lon="2.10194">
        <ele>288</ele>
        <time>2024-06-15T07:36:58.256Z</time>
      </trkpt>
      <trkpt lat="43.70396" lon="2.10211">
        <ele>283</ele>
        <time>2024-06-15T07:37:00.913Z</time>
      </trkpt>
      <trkpt lat="43.70388" lon="2.10218">
        <ele>282</ele>
        <time>2024-06-15T07:37:01.592Z</time>
      </trkpt>
      <trkpt lat="43.70369" lon="2.10233">
        <ele>279</ele>
        <time>2024-06-15T07:37:03.159Z</time>
      </trkpt>
      <trkpt lat="43.70361" lon="2.10244">
        <ele>278</ele>
        <time>2024-06-15T07:37:03.967Z</time>
      </trkpt>
      <trkpt lat="43.70358" lon="2.10252">
        <ele>278</ele>
        <time>2024-06-15T07:37:04.745Z</time>
      </trkpt>
      <trkpt lat="43.70355" lon="2.10281">
        <ele>282</ele>
        <time>2024-06-15T07:37:15.582Z</time>
      </trkpt>
      <trkpt lat="43.7035" lon="2.10293">
        <ele>282</ele>
        <time>2024-06-15T07:37:16.777Z</time>
      </trkpt>
      <trkpt lat="43.70341" lon="2.10299">
        <ele>281</ele>
        <time>2024-06-15T07:37:17.493Z</time>
      </trkpt>
      <trkpt lat="43.70323" lon="2.10302">
        <ele>277</ele>
        <time>2024-06-15T07:37:18.792Z</time>
      </trkpt>
      <trkpt lat="43.70306" lon="2.10314">
        <ele>276</ele>
        <time>2024-06-15T07:37:20.289Z</time>
      </trkpt>
      <trkpt lat="43.70286" lon="2.10323">
        <ele>273</ele>
        <time>2024-06-15T07:37:21.795Z</time>
      </trkpt>
      <trkpt lat="43.70278" lon="2.1033">
        <ele>272</ele>
        <time>2024-06-15T07:37:22.474Z</time>
      </trkpt>
      <trkpt lat="43.70269" lon="2.1034">
        <ele>271</ele>
        <time>2024-06-15T07:37:23.301Z</time>
      </trkpt>
      <trkpt lat="43.70237" lon="2.1039">
        <ele>269</ele>
        <time>2024-06-15T07:37:27.386Z</time>
      </trkpt>
      <trkpt lat="43.70232" lon="2.10392">
        <ele>268</ele>
        <time>2024-06-15T07:37:27.759Z</time>
      </trkpt>
      <trkpt lat="43.70225" lon="2.1039">
        <ele>266</ele>
        <time>2024-06-15T07:37:28.271Z</time>
      </trkpt>
      <trkpt lat="43.70201" lon="2.10374">
        <ele>260</ele>
        <time>2024-06-15T07:37:30.179Z</time>
      </trkpt>
      <trkpt lat="43.70203" lon="2.10369">
        <ele>260</ele>
        <time>2024-06-15T07:37:30.673Z</time>
      </trkpt>
      <trkpt lat="43.70238" lon="2.10281">
        <ele>259</ele>
        <time>2024-06-15T07:37:38.322Z</time>
      </trkpt>
      <trkpt lat="43.70268" lon="2.10224">
        <ele>260</ele>
        <time>2024-06-15T07:37:45.746Z</time>
      </trkpt>
      <trkpt lat="43.70268" lon="2.10215">
        <ele>260</ele>
        <time>2024-06-15T07:37:46.523Z</time>
      </trkpt>
      <trkpt lat="43.70265" lon="2.10202">
        <ele>259</ele>
        <time>2024-06-15T07:37:47.230Z</time>
      </trkpt>
      <trkpt lat="43.70217" lon="2.1011">
        <ele>254</ele>
        <time>2024-06-15T07:37:53.317Z</time>
      </trkpt>
      <trkpt lat="43.70214" lon="2.10105">
        <ele>254</ele>
        <time>2024-06-15T07:37:53.878Z</time>
      </trkpt>
      <trkpt lat="43.70209" lon="2.10105">
        <ele>254</ele>
        <time>2024-06-15T07:37:54.475Z</time>
      </trkpt>
      <trkpt lat="43.70192" lon="2.10119">
        <ele>253</ele>
        <time>2024-06-15T07:37:56.046Z</time>
      </trkpt>
      <trkpt lat="43.70163" lon="2.10147">
        <ele>250</ele>
        <time>2024-06-15T07:37:58.580Z</time>
      </trkpt>
      <trkpt lat="43.70155" lon="2.10153">
        <ele>250</ele>
        <time>2024-06-15T07:37:59.666Z</time>
      </trkpt>
      <trkpt lat="43.70146" lon="2.10155">
        <ele>249</ele>
        <time>2024-06-15T07:38:00.319Z</time>
      </trkpt>
      <trkpt lat="43.70123" lon="2.10154">
        <ele>249</ele>
        <time>2024-06-15T07:38:03.067Z</time>
      </trkpt>
      <trkpt lat="43.70112" lon="2.10158">
        <ele>249</ele>
        <time>2024-06-15T07:38:04.425Z</time>
      </trkpt>
      <trkpt lat="43.70091" lon="2.10168">
        <ele>248</ele>
        <time>2024-06-15T07:38:06.257Z</time>
      </trkpt>
      <trkpt lat="43.70067" lon="2.10184">
        <ele>248</ele>
        <time>2024-06-15T07:38:09.438Z</time>
      </trkpt>
      <trkpt lat="43.6989" lon="2.10325">
        <ele>255</ele>
        <time>2024-06-15T07:38:44.524Z</time>
      </trkpt>
      <trkpt lat="43.69884" lon="2.10328">
        <ele>254</ele>
        <time>2024-06-15T07:38:44.981Z</time>
      </trkpt>
      <trkpt lat="43.69871" lon="2.10326">
        <ele>254</ele>
        <time>2024-06-15T07:38:46.543Z</time>
      </trkpt>
      <trkpt lat="43.69868" lon="2.10341">
        <ele>253</ele>
        <time>2024-06-15T07:38:47.349Z</time>
      </trkpt>
      <trkpt lat="43.69861" lon="2.10359">
        <ele>252</ele>
        <time>2024-06-15T07:38:48.408Z</time>
      </trkpt>
      <trkpt lat="43.6979" lon="2.10465">
        <ele>246</ele>
        <time>2024-06-15T07:38:56.336Z</time>
      </trkpt>
      <trkpt lat="43.69766" lon="2.10501">
        <ele>246</ele>
        <time>2024-06-15T07:39:00.563Z</time>
      </trkpt>
      <trkpt lat="43.69676" lon="2.10583">
        <ele>243</ele>
        <time>2024-06-15T07:39:10.668Z</time>
      </trkpt>
      <trkpt lat="43.69634" lon="2.10657">
        <ele>238</ele>
        <time>2024-06-15T07:39:15.541Z</time>
      </trkpt>
      <trkpt lat="43.69626" lon="2.10668">
        <ele>237</ele>
        <time>2024-06-15T07:39:16.349Z</time>
      </trkpt>
      <trkpt lat="43.69615" lon="2.10678">
        <ele>237</ele>
        <time>2024-06-15T07:39:17.920Z</time>
      </trkpt>
      <trkpt lat="43.69287" lon="2.10911">
        <ele>225</ele>
        <time>2024-06-15T07:39:51.250Z</time>
      </trkpt>
      <trkpt lat="43.69298" lon="2.10933">
        <ele>224</ele>
        <time>2024-06-15T07:39:52.774Z</time>
      </trkpt>
      <trkpt lat="43.69384" lon="2.11112">
        <ele>222</ele>
        <time>2024-06-15T07:40:09.273Z</time>
      </trkpt>
      <trkpt lat="43.6939" lon="2.11133">
        <ele>222</ele>
        <time>2024-06-15T07:40:11.223Z</time>
      </trkpt>
      <trkpt lat="43.69397" lon="2.11317">
        <ele>227</ele>
        <time>2024-06-15T07:40:35.009Z</time>
      </trkpt>
      <trkpt lat="43.69396" lon="2.11383">
        <ele>230</ele>
        <time>2024-06-15T07:40:46.769Z</time>
      </trkpt>
      <trkpt lat="43.69383" lon="2.11612">
        <ele>247</ele>
        <time>2024-06-15T07:41:55.595Z</time>
      </trkpt>
      <trkpt lat="43.69382" lon="2.11646">
        <ele>249</ele>
        <time>2024-06-15T07:42:03.380Z</time>
      </trkpt>
      <trkpt lat="43.69384" lon="2.11666">
        <ele>250</ele>
        <time>2024-06-15T07:42:07.261Z</time>
      </trkpt>
      <trkpt lat="43.69388" lon="2.1169">
        <ele>251</ele>
        <time>2024-06-15T07:42:11.277Z</time>
      </trkpt>
      <trkpt lat="43.69411" lon="2.11755">
        <ele>254</ele>
        <time>2024-06-15T07:42:23.260Z</time>
      </trkpt>
      <trkpt lat="43.69412" lon="2.1174">
        <ele>254</ele>
        <time>2024-06-15T07:42:24.561Z</time>
      </trkpt>
      <trkpt lat="43.69409" lon="2.11719">
        <ele>253</ele>
        <time>2024-06-15T07:42:25.684Z</time>
      </trkpt>
      <trkpt lat="43.69404" lon="2.117">
        <ele>253</ele>
        <time>2024-06-15T07:42:27.429Z</time>
      </trkpt>
      <trkpt lat="43.694" lon="2.11678">
        <ele>252</ele>
        <time>2024-06-15T07:42:28.646Z</time>
      </trkpt>
      <trkpt lat="43.69403" lon="2.1165">
        <ele>251</ele>
        <time>2024-06-15T07:42:30.290Z</time>
      </trkpt>
      <trkpt lat="43.69411" lon="2.11626">
        <ele>250</ele>
        <time>2024-06-15T07:42:31.790Z</time>
      </trkpt>
      <trkpt lat="43.69447" lon="2.11555">
        <ele>252</ele>
        <time>2024-06-15T07:42:42.266Z</time>
      </trkpt>
      <trkpt lat="43.69489" lon="2.11479">
        <ele>254</ele>
        <time>2024-06-15T07:42:53.433Z</time>
      </trkpt>
      <trkpt lat="43.69549" lon="2.11402">
        <ele>254</ele>
        <time>2024-06-15T07:43:03.206Z</time>
      </trkpt>
      <trkpt lat="43.69569" lon="2.11369">
        <ele>254</ele>
        <time>2024-06-15T07:43:06.923Z</time>
      </trkpt>
      <trkpt lat="43.69578" lon="2.11348">
        <ele>253</ele>
        <time>2024-06-15T07:43:08.269Z</time>
      </trkpt>
      <trkpt lat="43.69594" lon="2.11292">
        <ele>252</ele>
        <time>2024-06-15T07:43:12.514Z</time>
      </trkpt>
      <trkpt lat="43.69601" lon="2.11283">
        <ele>252</ele>
        <time>2024-06-15T07:43:13.655Z</time>
      </trkpt>
      <trkpt lat="43.69615" lon="2.11272">
        <ele>253</ele>
        <time>2024-06-15T07:43:17.583Z</time>
      </trkpt>
      <trkpt lat="43.69628" lon="2.11266">
        <ele>254</ele>
        <time>2024-06-15T07:43:21.454Z</time>
      </trkpt>
      <trkpt lat="43.69644" lon="2.11266">
        <ele>255</ele>
        <time>2024-06-15T07:43:25.378Z</time>
      </trkpt>
      <trkpt lat="43.69657" lon="2.11266">
        <ele>257</ele>
        <time>2024-06-15T07:43:32.030Z</time>
      </trkpt>
      <trkpt lat="43.69696" lon="2.11251">
        <ele>260</ele>
        <time>2024-06-15T07:43:43.646Z</time>
      </trkpt>
      <trkpt lat="43.69728" lon="2.1123">
        <ele>262</ele>
        <time>2024-06-15T07:43:51.665Z</time>
      </trkpt>
      <trkpt lat="43.69812" lon="2.11169">
        <ele>270</ele>
        <time>2024-06-15T07:44:22.941Z</time>
      </trkpt>
      <trkpt lat="43.69843" lon="2.11149">
        <ele>272</ele>
        <time>2024-06-15T07:44:30.893Z</time>
      </trkpt>
      <trkpt lat="43.69878" lon="2.11132">
        <ele>274</ele>
        <time>2024-06-15T07:44:39.017Z</time>
      </trkpt>
      <trkpt lat="43.69902" lon="2.11126">
        <ele>276</ele>
        <time>2024-06-15T07:44:46.810Z</time>
      </trkpt>
      <trkpt lat="43.69937" lon="2.11131">
        <ele>279</ele>
        <time>2024-06-15T07:44:58.556Z</time>
      </trkpt>
      <trkpt lat="43.6994" lon="2.11131">
        <ele>279</ele>
        <time>2024-06-15T07:44:58.914Z</time>
      </trkpt>
      <trkpt lat="43.69972" lon="2.1115">
        <ele>284</ele>
        <time>2024-06-15T07:45:16.734Z</time>
      </trkpt>
      <trkpt lat="43.69983" lon="2.1116">
        <ele>286</ele>
        <time>2024-06-15T07:45:23.469Z</time>
      </trkpt>
      <trkpt lat="43.69991" lon="2.11172">
        <ele>288</ele>
        <time>2024-06-15T07:45:29.508Z</time>
      </trkpt>
      <trkpt lat="43.69996" lon="2.11186">
        <ele>289</ele>
        <time>2024-06-15T07:45:33.447Z</time>
      </trkpt>
      <trkpt lat="43.69996" lon="2.11198">
        <ele>291</ele>
        <time>2024-06-15T07:45:37.886Z</time>
      </trkpt>
      <trkpt lat="43.6999" lon="2.11231">
        <ele>295</ele>
        <time>2024-06-15T07:45:50.475Z</time>
      </trkpt>
      <trkpt lat="43.6999" lon="2.11246">
        <ele>297</ele>
        <time>2024-06-15T07:45:56.024Z</time>
      </trkpt>
      <trkpt lat="43.69988" lon="2.11258">
        <ele>299</ele>
        <time>2024-06-15T07:46:00.580Z</time>
      </trkpt>
      <trkpt lat="43.6998" lon="2.11308">
        <ele>303</ele>
        <time>2024-06-15T07:46:16.900Z</time>
      </trkpt>
      <trkpt lat="43.6998" lon="2.11324">
        <ele>304</ele>
        <time>2024-06-15T07:46:20.824Z</time>
      </trkpt>
      <trkpt lat="43.69984" lon="2.11343">
        <ele>306</ele>
        <time>2024-06-15T07:46:28.145Z</time>
      </trkpt>
      <trkpt lat="43.69991" lon="2.11366">
        <ele>307</ele>
        <time>2024-06-15T07:46:32.175Z</time>
      </trkpt>
      <trkpt lat="43.7001" lon="2.11397">
        <ele>310</ele>
        <time>2024-06-15T07:46:44.315Z</time>
      </trkpt>
      <trkpt lat="43.70018" lon="2.11417">
        <ele>312</ele>
        <time>2024-06-15T07:46:52.426Z</time>
      </trkpt>
      <trkpt lat="43.70022" lon="2.11455">
        <ele>315</ele>
        <time>2024-06-15T07:47:04.666Z</time>
      </trkpt>
      <trkpt lat="43.70028" lon="2.11469">
        <ele>316</ele>
        <time>2024-06-15T07:47:08.580Z</time>
      </trkpt>
      <trkpt lat="43.70056" lon="2.11508">
        <ele>318</ele>
        <time>2024-06-15T07:47:16.891Z</time>
      </trkpt>
      <trkpt lat="43.70092" lon="2.11551">
        <ele>318</ele>
        <time>2024-06-15T07:47:22.571Z</time>
      </trkpt>
      <trkpt lat="43.70113" lon="2.11572">
        <ele>318</ele>
        <time>2024-06-15T07:47:25.665Z</time>
      </trkpt>
      <trkpt lat="43.7015" lon="2.11605">
        <ele>314</ele>
        <time>2024-06-15T07:47:28.818Z</time>
      </trkpt>
      <trkpt lat="43.70165" lon="2.11636">
        <ele>309</ele>
        <time>2024-06-15T07:47:30.750Z</time>
      </trkpt>
      <trkpt lat="43.70189" lon="2.11696">
        <ele>294</ele>
        <time>2024-06-15T07:47:34.302Z</time>
      </trkpt>
      <trkpt lat="43.70193" lon="2.11722">
        <ele>288</ele>
        <time>2024-06-15T07:47:35.678Z</time>
      </trkpt>
      <trkpt lat="43.70198" lon="2.11725">
        <ele>286</ele>
        <time>2024-06-15T07:47:36.069Z</time>
      </trkpt>
      <trkpt lat="43.70208" lon="2.11724">
        <ele>285</ele>
        <time>2024-06-15T07:47:36.787Z</time>
      </trkpt>
      <trkpt lat="43.70212" lon="2.11727">
        <ele>284</ele>
        <time>2024-06-15T07:47:37.113Z</time>
      </trkpt>
      <trkpt lat="43.70214" lon="2.11733">
        <ele>283</ele>
        <time>2024-06-15T07:47:37.455Z</time>
      </trkpt>
      <trkpt lat="43.70212" lon="2.11744">
        <ele>281</ele>
        <time>2024-06-15T07:47:38.043Z</time>
      </trkpt>
      <trkpt lat="43.70213" lon="2.11766">
        <ele>277</ele>
        <time>2024-06-15T07:47:39.184Z</time>
      </trkpt>
      <trkpt lat="43.70211" lon="2.11815">
        <ele>268</ele>
        <time>2024-06-15T07:47:41.726Z</time>
      </trkpt>
      <trkpt lat="43.70204" lon="2.11863">
        <ele>260</ele>
        <time>2024-06-15T07:47:44.262Z</time>
      </trkpt>
      <trkpt lat="43.70198" lon="2.11887">
        <ele>256</ele>
        <time>2024-06-15T07:47:45.577Z</time>
      </trkpt>
      <trkpt lat="43.70177" lon="2.11954">
        <ele>246</ele>
        <time>2024-06-15T07:47:49.359Z</time>
      </trkpt>
      <trkpt lat="43.70143" lon="2.12024">
        <ele>239</ele>
        <time>2024-06-15T07:47:53.727Z</time>
      </trkpt>
      <trkpt lat="43.70139" lon="2.12051">
        <ele>238</ele>
        <time>2024-06-15T07:47:55.313Z</time>
      </trkpt>
      <trkpt lat="43.70139" lon="2.12051">
        <ele>238</ele>
        <time>2024-06-15T07:47:55.313Z</time>
      </trkpt>
      <trkpt lat="43.70175" lon="2.12208">
        <ele>234</ele>
        <time>2024-06-15T07:48:05.991Z</time>
      </trkpt>
      <trkpt lat="43.70184" lon="2.12263">
        <ele>236</ele>
        <time>2024-06-15T07:48:14.381Z</time>
      </trkpt>
      <trkpt lat="43.70201" lon="2.1233">
        <ele>240</ele>
        <time>2024-06-15T07:48:29.896Z</time>
      </trkpt>
      <trkpt lat="43.70204" lon="2.12418">
        <ele>238</ele>
        <time>2024-06-15T07:48:35.704Z</time>
      </trkpt>
      <trkpt lat="43.7022" lon="2.12469">
        <ele>238</ele>
        <time>2024-06-15T07:48:40.503Z</time>
      </trkpt>
      <trkpt lat="43.70222" lon="2.12482">
        <ele>238</ele>
        <time>2024-06-15T07:48:41.650Z</time>
      </trkpt>
      <trkpt lat="43.70223" lon="2.12496">
        <ele>238</ele>
        <time>2024-06-15T07:48:42.864Z</time>
      </trkpt>
      <trkpt lat="43.70222" lon="2.12513">
        <ele>238</ele>
        <time>2024-06-15T07:48:44.336Z</time>
      </trkpt>
      <trkpt lat="43.70214" lon="2.1262">
        <ele>244</ele>
        <time>2024-06-15T07:49:07.596Z</time>
      </trkpt>
      <trkpt lat="43.70215" lon="2.12633">
        <ele>245</ele>
        <time>2024-06-15T07:49:11.666Z</time>
      </trkpt>
      <trkpt lat="43.70218" lon="2.12654">
        <ele>246</ele>
        <time>2024-06-15T07:49:15.570Z</time>
      </trkpt>
      <trkpt lat="43.70228" lon="2.12661">
        <ele>247</ele>
        <time>2024-06-15T07:49:19.515Z</time>
      </trkpt>
      <trkpt lat="43.70261" lon="2.12697">
        <ele>250</ele>
        <time>2024-06-15T07:49:31.134Z</time>
      </trkpt>
      <trkpt lat="43.70278" lon="2.1271">
        <ele>252</ele>
        <time>2024-06-15T07:49:39.239Z</time>
      </trkpt>
      <trkpt lat="43.70299" lon="2.12719">
        <ele>253</ele>
        <time>2024-06-15T07:49:43.565Z</time>
      </trkpt>
      <trkpt lat="43.70305" lon="2.12732">
        <ele>253</ele>
        <time>2024-06-15T07:49:44.896Z</time>
      </trkpt>
      <trkpt lat="43.70306" lon="2.12756">
        <ele>252</ele>
        <time>2024-06-15T07:49:46.214Z</time>
      </trkpt>
      <trkpt lat="43.70305" lon="2.12764">
        <ele>252</ele>
        <time>2024-06-15T07:49:46.915Z</time>
      </trkpt>
      <trkpt lat="43.70298" lon="2.12825">
        <ele>246</ele>
        <time>2024-06-15T07:49:50.114Z</time>
      </trkpt>
      <trkpt lat="43.70301" lon="2.12868">
        <ele>242</ele>
        <time>2024-06-15T07:49:52.351Z</time>
      </trkpt>
      <trkpt lat="43.70312" lon="2.12958">
        <ele>235</ele>
        <time>2024-06-15T07:49:57.078Z</time>
      </trkpt>
      <trkpt lat="43.70315" lon="2.12982">
        <ele>234</ele>
        <time>2024-06-15T07:49:58.420Z</time>
      </trkpt>
      <trkpt lat="43.70327" lon="2.13036">
        <ele>232</ele>
        <time>2024-06-15T07:50:01.698Z</time>
      </trkpt>
    </trkseg>
  </trk>
</gpx>